Time;durP1;ratioP1;P1;durP2;ratioP2;P2;SDS_P1;SDS_P2;PMS_P1;PMS_P2;Temp;Humidity;BMP_temperature;BMP_pressure;BME280_temperature;BME280_humidity;BME280_pressure;Samples;Min_cycle;Max_cycle;Signal;HPM_P1;HPM_P2
2021/04/05 00:02:20;;;;;;;;;;;;;;;5.99;70.65;100337.27;1763373;81;20295;-57
2021/04/05 00:05:26;;;;;;;;;;;;;;;5.92;70.73;100347.52;1763193;81;20323;-57
2021/04/05 00:08:32;;;;;;;;;;;;;;;5.84;71.07;100347.40;1761294;78;20251;-57
2021/04/05 00:11:37;;;;;;;;;;;;;;;5.82;71.34;100352.98;1760953;81;20224;-57
2021/04/05 00:14:44;;;;;;;;;;;;;;;5.80;71.40;100352.75;1760970;81;20260;-57
2021/04/05 00:17:48;;;;;;;;;;;;;;;5.75;71.47;100353.69;1760971;81;20192;-56
2021/04/05 00:21:00;;;;;;;;;;;;;;;5.71;71.60;100354.96;1761141;81;20244;-56
2021/04/05 00:24:05;;;;;;;;;;;;;;;5.66;71.67;100348.61;1753644;81;20233;-57
2021/04/05 00:27:14;;;;;;;;;;;;;;;5.61;71.83;100345.47;1753304;81;20213;-56
2021/04/05 00:30:22;;;;;;;;;;;;;;;5.59;71.87;100346.63;1753329;81;20205;-56
2021/04/05 00:33:27;;;;;;;;;;;;;;;5.53;71.95;100344.50;1753635;81;20204;-56
2021/04/05 00:36:30;;;;;;;;;;;;;;;5.50;72.19;100344.80;1753496;81;20233;-56
2021/04/05 00:39:35;;;;;;;;;;;;;;;5.46;72.09;100350.14;1753505;81;20493;-56
2021/04/05 00:42:40;;;;;;;;;;;;;;;5.37;71.93;100348.30;1753575;81;20299;-57
2021/04/05 00:45:44;;;;;;;;;;;;;;;5.26;72.00;100350.67;1753470;81;20252;-57
2021/04/05 00:48:47;;;;;;;;;;;;;;;5.18;72.18;100340.16;1753472;81;20323;-57
2021/04/05 00:51:51;;;;;;;;;;;;;;;5.12;72.37;100342.94;1753527;81;20284;-57
2021/04/05 00:54:54;;;;;;;;;;;;;;;5.07;72.58;100341.66;1753558;81;20280;-56
2021/04/05 00:58:00;;;;;;;;;;;;;;;5.07;72.66;100341.66;1753456;81;20263;-56
2021/04/05 01:01:08;;;;;;;;;;;;;;;5.10;72.68;100344.09;1753209;82;20292;-56
2021/04/05 01:04:13;;;;;;;;;;;;;;;5.12;72.66;100340.22;1753856;81;20303;-56
2021/04/05 01:07:17;;;;;;;;;;;;;;;5.16;72.61;100338.08;1753513;81;20652;-57
2021/04/05 01:10:25;;;;;;;;;;;;;;;5.19;72.55;100332.37;1722838;82;20203;-57
2021/04/05 01:13:28;;;;;;;;;;;;;;;5.21;72.51;100333.95;1723041;82;20206;-56
2021/04/05 01:16:34;;;;;;;;;;;;;;;5.22;72.51;100347.88;1722056;82;20207;-57
2021/04/05 01:19:38;;;;;;;;;;;;;;;5.18;72.51;100346.46;1721814;83;20202;-57
2021/04/05 01:22:43;;;;;;;;;;;;;;;5.15;72.64;100347.23;1722357;82;20262;-56
2021/04/05 01:25:47;;;;;;;;;;;;;;;5.18;72.82;100344.23;1722219;83;20553;-57
2021/04/05 01:28:51;;;;;;;;;;;;;;;5.18;72.65;100342.88;1721984;83;20222;-56
2021/04/05 01:31:54;;;;;;;;;;;;;;;5.10;72.65;100345.45;1721913;83;20235;-57
2021/04/05 01:34:59;;;;;;;;;;;;;;;5.05;72.84;100346.36;1721941;83;20239;-56
2021/04/05 01:38:05;;;;;;;;;;;;;;;5.03;72.92;100345.64;1721967;83;20214;-56
2021/04/05 01:41:11;;;;;;;;;;;;;;;4.98;72.88;100349.30;1722121;82;20214;-56
2021/04/05 01:44:17;;;;;;;;;;;;;;;4.92;72.88;100337.64;1722276;83;20234;-56
2021/04/05 01:47:20;;;;;;;;;;;;;;;4.86;72.88;100332.30;1722031;83;20207;-57
2021/04/05 01:50:27;;;;;;;;;;;;;;;4.81;72.66;100329.14;1721906;83;20214;-55
2021/04/05 01:53:30;;;;;;;;;;;;;;;4.74;72.75;100327.14;1721920;83;20230;-56
2021/04/05 01:56:34;;;;;;;;;;;;;;;4.68;73.02;100317.70;1722021;83;20260;-58
2021/04/05 01:59:38;;;;;;;;;;;;;;;4.61;73.29;100318.75;1721981;83;20210;-58
2021/04/05 02:02:43;;;;;;;;;;;;;;;4.55;73.32;100319.31;1721923;83;20242;-58
2021/04/05 02:05:59;;;;;;;;;;;;;;;4.48;73.10;100316.82;1721963;83;20210;-58
2021/04/05 02:09:03;;;;;;;;;;;;;;;4.44;73.16;100311.79;1723482;79;20379;-58
2021/04/05 02:12:09;;;;;;;;;;;;;;;4.41;73.33;100311.58;1806893;79;20288;-58
2021/04/05 02:15:15;;;;;;;;;;;;;;;4.39;73.32;100311.37;1806799;79;20296;-58
2021/04/05 02:18:12;;;;;;;;;;;;;;;4.33;73.29;100301.94;1807024;79;20281;-56
2021/04/05 02:21:04;;;;;;;;;;;;;;;4.29;73.54;100286.97;1806432;79;20260;-56
2021/04/05 02:24:10;;;;;;;;;;;;;;;4.24;73.82;100286.52;1806240;79;20289;-56
2021/04/05 02:27:15;;;;;;;;;;;;;;;4.21;73.97;100289.50;1806118;79;20281;-56
2021/04/05 02:30:22;;;;;;;;;;;;;;;4.18;73.79;100284.85;1806613;79;20272;-58
2021/04/05 02:33:27;;;;;;;;;;;;;;;4.12;73.52;100293.02;1806132;79;20296;-55
2021/04/05 02:36:39;;;;;;;;;;;;;;;4.11;73.53;100295.86;1806562;79;20295;-56
2021/04/05 02:39:41;;;;;;;;;;;;;;;4.08;73.52;100301.07;1806366;79;20857;-55
2021/04/05 02:42:45;;;;;;;;;;;;;;;4.02;73.23;100301.63;1806843;79;20268;-56
2021/04/05 02:45:49;;;;;;;;;;;;;;;3.93;73.21;100304.28;1806795;79;20209;-56
2021/04/05 02:48:57;;;;;;;;;;;;;;;3.91;73.49;100304.42;1806857;79;20272;-55
2021/04/05 02:52:01;;;;;;;;;;;;;;;3.87;73.61;100304.32;1806505;79;20269;-56
2021/04/05 02:55:05;;;;;;;;;;;;;;;3.84;73.72;100307.30;1806797;79;20280;-56
2021/04/05 02:58:13;;;;;;;;;;;;;;;3.81;73.61;100310.28;1806937;79;20289;-56
2021/04/05 03:01:17;;;;;;;;;;;;;;;3.75;73.52;100320.78;1806701;79;20281;-58
2021/04/05 03:04:21;;;;;;;;;;;;;;;3.71;73.63;100324.77;1806616;79;20205;-57
2021/04/05 03:07:25;;;;;;;;;;;;;;;3.65;73.52;100327.98;1806933;79;20344;-57
2021/04/05 03:10:35;;;;;;;;;;;;;;;3.57;73.58;100318.34;1805364;79;20245;-55
2021/04/05 03:13:39;;;;;;;;;;;;;;;3.53;73.71;100322.30;1806846;79;20245;-55
2021/04/05 03:16:43;;;;;;;;;;;;;;;3.48;73.89;100321.83;1806774;79;20340;-55
2021/04/05 03:19:46;;;;;;;;;;;;;;;3.44;74.01;100315.81;1769329;79;20272;-55
2021/04/05 03:22:51;;;;;;;;;;;;;;;3.46;74.03;100326.02;1806455;79;20297;-55
2021/04/05 03:25:56;;;;;;;;;;;;;;;3.47;73.93;100316.94;1801598;79;20332;-56
2021/04/05 03:29:00;;;;;;;;;;;;;;;3.44;73.65;100317.69;1806818;79;20209;-55
2021/04/05 03:32:04;;;;;;;;;;;;;;;3.40;73.46;100317.57;1806868;79;20272;-55
2021/04/05 03:35:08;;;;;;;;;;;;;;;3.36;73.53;100315.66;1807011;79;20284;-56
2021/04/05 03:38:12;;;;;;;;;;;;;;;3.35;73.49;100316.62;1806885;79;20177;-55
2021/04/05 03:41:31;;;;;;;;;;;;;;;3.34;73.59;100314.05;1806563;79;20327;-55
2021/04/05 03:44:55;;;;;;;;;;;;;;;3.34;73.56;100309.51;1788277;79;20209;-55
2021/04/05 03:48:19;;;;;;;;;;;;;;;3.33;73.57;100306.42;1806751;79;20272;-55
2021/04/05 03:51:39;;;;;;;;;;;;;;;3.36;73.43;100299.42;1806913;79;20201;-55
2021/04/05 03:54:56;;;;;;;;;;;;;;;3.37;73.70;100298.91;1806906;79;20273;-55
2021/04/05 03:58:00;;;;;;;;;;;;;;;3.42;73.88;100304.78;1806947;79;20221;-55
2021/04/05 04:01:06;;;;;;;;;;;;;;;3.44;73.71;100307.70;1806806;79;20200;-56
2021/04/05 04:04:25;;;;;;;;;;;;;;;3.47;73.77;100312.01;1806746;79;20217;-55
2021/04/05 04:07:28;;;;;;;;;;;;;;;3.52;73.74;100314.66;1807059;79;20274;-56
2021/04/05 04:10:31;;;;;;;;;;;;;;;3.59;73.67;100310.45;1806947;79;20736;-55
2021/04/05 04:13:35;;;;;;;;;;;;;;;3.67;73.50;100309.77;1806865;79;20303;-55
2021/04/05 04:16:38;;;;;;;;;;;;;;;3.74;73.46;100306.38;1806934;79;20284;-55
2021/04/05 04:19:44;;;;;;;;;;;;;;;3.81;73.46;100311.63;1806952;79;20288;-57
2021/04/05 04:22:50;;;;;;;;;;;;;;;3.85;73.24;100306.33;1806870;79;20652;-56
2021/04/05 04:25:54;;;;;;;;;;;;;;;3.88;73.15;100296.58;1804458;79;20285;-57
2021/04/05 04:28:58;;;;;;;;;;;;;;;3.87;73.02;100292.14;1785299;80;20552;-56
2021/04/05 04:32:04;;;;;;;;;;;;;;;3.86;73.01;100289.08;1772618;80;20250;-57
2021/04/05 04:35:09;;;;;;;;;;;;;;;3.86;73.46;100296.33;1774018;79;20277;-56
2021/04/05 04:38:14;;;;;;;;;;;;;;;3.94;74.02;100298.73;1801044;79;20288;-56
2021/04/05 04:41:18;;;;;;;;;;;;;;;4.05;74.24;100296.41;1799889;79;20296;-57
2021/04/05 04:44:23;;;;;;;;;;;;;;;4.14;74.35;100291.03;1793503;79;20291;-57
2021/04/05 04:47:27;;;;;;;;;;;;;;;4.21;74.24;100296.28;1778076;79;20202;-57
2021/04/05 04:50:32;;;;;;;;;;;;;;;4.31;74.34;100300.37;1773957;79;20207;-56
2021/04/05 04:53:35;;;;;;;;;;;;;;;4.39;74.25;100285.63;1802977;79;20467;-57
2021/04/05 04:56:39;;;;;;;;;;;;;;;4.47;74.27;100286.62;1786017;79;20201;-57
2021/04/05 04:59:43;;;;;;;;;;;;;;;4.59;74.41;100292.30;1796084;79;20197;-57
2021/04/05 05:02:50;;;;;;;;;;;;;;;4.67;74.27;100288.88;1794772;79;20214;-57
2021/04/05 05:05:56;;;;;;;;;;;;;;;4.74;74.30;100282.41;1792119;79;20216;-57
2021/04/05 05:09:00;;;;;;;;;;;;;;;4.84;74.40;100272.40;1790079;79;20209;-57
2021/04/05 05:12:04;;;;;;;;;;;;;;;4.92;74.41;100265.77;1781574;79;20246;-55
2021/04/05 05:15:09;;;;;;;;;;;;;;;5.01;74.46;100263.05;1769730;80;20617;-57
2021/04/05 05:18:13;;;;;;;;;;;;;;;5.08;74.44;100265.56;1770823;81;20304;-57
2021/04/05 05:21:22;;;;;;;;;;;;;;;5.14;74.42;100264.97;1770531;81;20213;-58
2021/04/05 05:24:31;;;;;;;;;;;;;;;5.19;74.40;100253.19;1771806;81;20292;-56
2021/04/05 05:27:35;;;;;;;;;;;;;;;5.26;74.43;100257.55;1780646;80;20285;-56
2021/04/05 05:30:42;;;;;;;;;;;;;;;5.34;74.62;100253.61;1793493;80;20218;-57
2021/04/05 05:33:46;;;;;;;;;;;;;;;5.40;74.58;100250.30;1793477;79;20317;-57
2021/04/05 05:36:51;;;;;;;;;;;;;;;5.49;74.67;100240.77;1768152;81;20548;-57
2021/04/05 05:39:56;;;;;;;;;;;;;;;5.56;74.54;100247.83;1783041;80;20194;-57
2021/04/05 05:43:17;;;;;;;;;;;;;;;5.63;74.36;100247.58;1762581;80;20265;-57
2021/04/05 05:46:41;;;;;;;;;;;;;;;5.70;74.12;100244.64;1783045;80;20281;-57
2021/04/05 05:49:57;;;;;;;;;;;;;;;5.77;74.02;100247.13;1762187;80;20216;-58
2021/04/05 05:53:13;;;;;;;;;;;;;;;5.86;73.93;100246.26;1762551;80;20208;-57
2021/04/05 05:56:33;;;;;;;;;;;;;;;6.02;73.55;100249.19;1765373;80;20248;-57
2021/04/05 05:59:41;;;;;;;;;;;;;;;6.18;73.22;100249.40;1774034;80;20197;-57
2021/04/05 06:02:58;;;;;;;;;;;;;;;6.43;73.25;100254.60;1791568;79;20261;-57
2021/04/05 06:06:23;;;;;;;;;;;;;;;6.65;73.07;100258.24;1783338;80;20209;-57
2021/04/05 06:09:38;;;;;;;;;;;;;;;6.84;72.56;100245.36;1765240;81;20548;-57
2021/04/05 06:13:04;;;;;;;;;;;;;;;7.05;72.23;100251.36;1771652;80;20264;-57
2021/04/05 06:16:39;;;;;;;;;;;;;;;7.24;71.95;100251.17;1801167;79;20209;-57
2021/04/05 06:19:58;;;;;;;;;;;;;;;7.45;71.33;100250.30;1775303;79;20293;-57
2021/04/05 06:23:20;;;;;;;;;;;;;;;7.57;69.83;100250.40;1789356;79;20612;-57
2021/04/05 06:27:01;;;;;;;;;;;;;;;7.63;68.88;100253.50;1802855;78;20285;-57
2021/04/05 06:30:33;;;;;;;;;;;;;;;7.73;68.27;100248.78;1777012;79;20574;-56
2021/04/05 06:33:44;;;;;;;;;;;;;;;7.79;68.03;100248.13;1771063;80;20205;-57
2021/04/05 06:37:01;;;;;;;;;;;;;;;7.97;67.88;100251.65;1788663;79;20240;-61
2021/04/05 06:40:08;;;;;;;;;;;;;;;8.17;67.50;100253.10;1796068;79;20221;-61
2021/04/05 06:43:34;;;;;;;;;;;;;;;8.33;67.15;100251.34;1805755;79;20312;-61
2021/04/05 06:46:49;;;;;;;;;;;;;;;8.44;67.21;100245.58;1744366;82;20642;-62
2021/04/05 06:50:14;;;;;;;;;;;;;;;8.61;66.74;100249.23;1733554;80;20671;-61
2021/04/05 06:53:55;;;;;;;;;;;;;;;8.74;66.00;100255.89;1785896;79;20257;-63
2021/04/05 06:57:21;;;;;;;;;;;;;;;8.85;65.76;100241.06;1794800;79;20221;-62
2021/04/05 07:00:29;;;;;;;;;;;;;;;8.97;64.72;100238.37;1805578;79;20560;-63
2021/04/05 07:03:59;;;;;;;;;;;;;;;9.02;64.25;100238.72;1806368;79;20645;-62
2021/04/05 07:07:14;;;;;;;;;;;;;;;9.13;63.51;100227.46;1801909;79;20201;-62
2021/04/05 07:10:34;;;;;;;;;;;;;;;9.24;62.66;100224.39;1804669;79;20573;-61
2021/04/05 07:13:46;;;;;;;;;;;;;;;9.30;62.39;100218.73;1798337;79;20198;-61
2021/04/05 07:16:54;;;;;;;;;;;;;;;9.35;61.85;100218.58;1756331;81;20215;-60
2021/04/05 07:20:10;;;;;;;;;;;;;;;9.39;61.70;100216.36;1766491;81;20227;-62
2021/04/05 07:23:35;;;;;;;;;;;;;;;9.45;61.69;100211.56;1763926;81;20241;-62
2021/04/05 07:26:57;;;;;;;;;;;;;;;9.49;61.18;100208.81;1693294;84;20260;-60
2021/04/05 07:30:13;;;;;;;;;;;;;;;9.53;60.92;100208.28;1698572;83;20212;-61
2021/04/05 07:33:41;;;;;;;;;;;;;;;9.54;61.03;100203.69;1767668;81;20239;-60
2021/04/05 07:36:51;;;;;;;;;;;;;;;9.58;61.16;100202.30;1764093;81;20208;-61
2021/04/05 07:40:23;;;;;;;;;;;;;;;9.58;60.92;100194.96;1767227;81;20560;-61
2021/04/05 07:44:05;;;;;;;;;;;;;;;9.60;60.99;100194.28;1753848;81;20207;-61
2021/04/05 07:47:25;;;;;;;;;;;;;;;9.55;60.98;100189.84;1737482;82;20221;-62
2021/04/05 07:51:01;;;;;;;;;;;;;;;9.60;60.50;100190.18;1737313;82;20217;-61
2021/04/05 07:54:12;;;;;;;;;;;;;;;9.68;60.29;100187.94;1737085;81;20200;-56
2021/04/05 07:57:36;;;;;;;;;;;;;;;9.83;59.88;100184.30;1735435;83;20223;-57
2021/04/05 08:01:05;;;;;;;;;;;;;;;9.89;59.54;100172.68;1735895;83;20215;-58
2021/04/05 08:04:23;;;;;;;;;;;;;;;9.96;59.12;100176.90;1735613;83;20189;-58
2021/04/05 08:07:34;;;;;;;;;;;;;;;10.03;58.64;100173.30;1735885;83;20280;-57
2021/04/05 08:10:41;;;;;;;;;;;;;;;10.11;58.20;100166.97;1735485;82;20484;-56
2021/04/05 08:13:58;;;;;;;;;;;;;;;10.10;58.10;100162.00;1735219;83;20231;-56
2021/04/05 08:17:27;;;;;;;;;;;;;;;10.25;58.00;100162.97;1768748;80;20277;-56
2021/04/05 08:20:36;;;;;;;;;;;;;;;10.43;57.93;100148.48;1770910;81;20633;-57
2021/04/05 08:23:47;;;;;;;;;;;;;;;10.64;57.65;100144.26;1772234;81;20210;-56
2021/04/05 08:27:06;;;;;;;;;;;;;;;10.82;57.36;100142.05;1775911;79;20587;-58
2021/04/05 08:30:21;;;;;;;;;;;;;;;11.01;56.37;100133.33;1792500;79;20336;-60
2021/04/05 08:33:37;;;;;;;;;;;;;;;11.19;54.56;100136.59;1782501;79;20286;-59
2021/04/05 08:37:11;;;;;;;;;;;;;;;11.31;54.64;100129.62;1782473;79;20285;-55
2021/04/05 08:40:20;;;;;;;;;;;;;;;11.50;53.65;100129.07;1773131;81;20204;-58
2021/04/05 08:43:50;;;;;;;;;;;;;;;11.67;53.17;100126.00;1773424;80;20255;-56
2021/04/05 08:46:56;;;;;;;;;;;;;;;11.86;52.90;100110.88;1773851;79;20657;-62
2021/04/05 08:50:05;;;;;;;;;;;;;;;12.07;51.48;100098.58;1782970;79;20269;-59
2021/04/05 08:53:09;;;;;;;;;;;;;;;12.19;50.95;100097.56;1804307;79;20299;-56
2021/04/05 08:56:15;;;;;;;;;;;;;;;12.25;51.61;100092.16;1806271;79;20640;-57
2021/04/05 08:59:25;;;;;;;;;;;;;;;12.53;51.43;100089.48;1773972;80;20228;-59
2021/04/05 09:02:54;;;;;;;;;;;;;;;12.80;51.40;100085.44;1774000;81;20214;-57
2021/04/05 09:05:57;;;;;;;;;;;;;;;13.13;50.83;100081.11;1774337;81;20514;-59
2021/04/05 09:09:01;;;;;;;;;;;;;;;13.40;48.63;100083.00;1774299;80;20250;-58
2021/04/05 09:12:06;;;;;;;;;;;;;;;13.61;47.26;100067.46;1775078;81;20287;-57
2021/04/05 09:15:36;;;;;;;;;;;;;;;13.74;46.77;100063.42;1774689;81;20287;-58
2021/04/05 09:18:56;;;;;;;;;;;;;;;13.68;46.42;100062.86;1800967;79;20280;-58
2021/04/05 09:22:18;;;;;;;;;;;;;;;13.60;46.69;100056.15;1806116;79;20316;-57
2021/04/05 09:25:45;;;;;;;;;;;;;;;13.57;46.37;100060.69;1806424;79;20228;-59
2021/04/05 09:29:07;;;;;;;;;;;;;;;13.44;45.56;100052.69;1806750;79;20315;-58
2021/04/05 09:32:37;;;;;;;;;;;;;;;13.30;45.26;100053.63;1806794;79;20213;-57
2021/04/05 09:36:00;;;;;;;;;;;;;;;13.22;45.21;100045.53;1806820;79;20201;-57
2021/04/05 09:39:21;;;;;;;;;;;;;;;13.19;45.38;100047.32;1806397;79;20209;-57
2021/04/05 09:42:51;;;;;;;;;;;;;;;13.27;45.85;100038.92;1806436;79;20320;-58
2021/04/05 09:46:26;;;;;;;;;;;;;;;13.39;45.88;100032.34;1792762;79;20280;-58
2021/04/05 09:49:47;;;;;;;;;;;;;;;13.46;45.22;100035.98;1766617;81;20227;-56
2021/04/05 09:53:21;;;;;;;;;;;;;;;13.52;44.79;100022.80;1766781;81;20592;-56
2021/04/05 09:56:32;;;;;;;;;;;;;;;13.52;44.03;100021.42;1806507;79;20284;-56
2021/04/05 09:59:45;;;;;;;;;;;;;;;13.59;44.24;100026.41;1806642;79;20606;-57
2021/04/05 10:03:01;;;;;;;;;;;;;;;13.58;43.62;100015.09;1790100;79;20585;-57
2021/04/05 10:06:09;;;;;;;;;;;;;;;13.52;43.19;100016.75;1773671;81;20207;-58
2021/04/05 10:09:15;;;;;;;;;;;;;;;13.45;43.38;100010.38;1790013;79;20213;-56
2021/04/05 10:12:20;;;;;;;;;;;;;;;13.28;42.76;100006.79;1798705;79;20198;-58
2021/04/05 10:15:26;;;;;;;;;;;;;;;13.18;42.71;100001.66;1774076;79;20249;-58
2021/04/05 10:18:30;;;;;;;;;;;;;;;13.12;42.68;100001.61;1803012;78;20303;-59
2021/04/05 10:21:35;;;;;;;;;;;;;;;13.12;42.89;99991.48;1801250;79;20633;-58
2021/04/05 10:24:41;;;;;;;;;;;;;;;13.11;43.21;99997.17;1773302;80;20211;-58
2021/04/05 10:27:46;;;;;;;;;;;;;;;13.12;42.06;100006.59;1757317;80;20836;-58
2021/04/05 10:30:50;;;;;;;;;;;;;;;13.10;41.25;100000.44;1774072;81;20211;-59
2021/04/05 10:33:58;;;;;;;;;;;;;;;13.15;41.34;99995.19;1780745;80;20246;-60
2021/04/05 10:37:06;;;;;;;;;;;;;;;13.42;41.92;99989.31;1773596;81;20820;-59
2021/04/05 10:40:12;;;;;;;;;;;;;;;13.84;41.46;99982.22;1773709;80;20211;-60
2021/04/05 10:43:27;;;;;;;;;;;;;;;14.08;40.11;99986.30;1801994;79;20549;-60
2021/04/05 10:46:39;;;;;;;;;;;;;;;14.02;39.66;99976.09;1772693;79;20252;-58
2021/04/05 10:49:44;;;;;;;;;;;;;;;14.01;38.99;99968.91;1793987;79;20602;-58
2021/04/05 10:52:51;;;;;;;;;;;;;;;13.89;39.08;99971.95;1776978;79;20204;-59
2021/04/05 10:56:01;;;;;;;;;;;;;;;13.81;38.61;99969.39;1783361;79;20204;-58
2021/04/05 10:59:22;;;;;;;;;;;;;;;13.74;39.01;99970.74;1803091;79;20206;-59
2021/04/05 11:02:37;;;;;;;;;;;;;;;13.70;39.83;99967.23;1805186;79;20288;-58
2021/04/05 11:05:43;;;;;;;;;;;;;;;13.74;40.28;99954.75;1805771;79;20284;-59
2021/04/05 11:08:51;;;;;;;;;;;;;;;13.76;40.22;99960.39;1805745;79;20237;-59
2021/04/05 11:11:59;;;;;;;;;;;;;;;13.62;40.54;99953.66;1806087;79;20289;-60
2021/04/05 11:15:05;;;;;;;;;;;;;;;13.32;40.99;99955.83;1803060;79;20949;-59
2021/04/05 11:18:13;;;;;;;;;;;;;;;12.86;42.09;99950.03;1798642;78;20270;-59
2021/04/05 11:21:16;;;;;;;;;;;;;;;12.60;41.66;99951.75;1769202;81;20570;-59
2021/04/05 11:24:20;;;;;;;;;;;;;;;12.34;41.97;99947.39;1769466;81;20622;-60
2021/04/05 11:27:29;;;;;;;;;;;;;;;12.27;42.02;99941.88;1769450;81;20281;-60
2021/04/05 11:30:34;;;;;;;;;;;;;;;12.22;41.92;99935.27;1768463;81;20312;-60
2021/04/05 11:33:41;;;;;;;;;;;;;;;12.18;41.70;99929.31;1769266;81;20297;-58
2021/04/05 11:36:50;;;;;;;;;;;;;;;12.19;41.77;99932.41;1768360;81;20273;-57
2021/04/05 11:40:00;;;;;;;;;;;;;;;12.27;41.65;99931.41;1766425;81;20323;-58
2021/04/05 11:43:05;;;;;;;;;;;;;;;12.31;41.48;99930.81;1768410;81;20293;-58
2021/04/05 11:46:19;;;;;;;;;;;;;;;12.36;41.43;99922.84;1750794;81;20515;-59
2021/04/05 11:49:23;;;;;;;;;;;;;;;12.49;41.71;99920.20;1755127;81;20231;-59
2021/04/05 11:52:52;;;;;;;;;;;;;;;12.74;41.18;99916.47;1762614;81;20776;-60
2021/04/05 11:55:56;;;;;;;;;;;;;;;12.97;40.43;99915.13;1757321;81;20683;-59
2021/04/05 11:59:12;;;;;;;;;;;;;;;13.44;39.53;99912.45;1764005;81;20254;-60
2021/04/05 12:02:19;;;;;;;;;;;;;;;13.92;38.40;99911.00;1764091;81;20237;-60
2021/04/05 12:05:36;;;;;;;;;;;;;;;14.36;36.79;99909.39;1737329;81;20212;-59
2021/04/05 12:08:44;;;;;;;;;;;;;;;14.66;37.49;99907.04;1764367;81;20291;-59
2021/04/05 12:11:50;;;;;;;;;;;;;;;14.91;36.49;99910.29;1767224;81;20308;-59
2021/04/05 12:14:58;;;;;;;;;;;;;;;15.06;35.88;99894.89;1768985;81;20209;-60
2021/04/05 12:18:01;;;;;;;;;;;;;;;15.25;35.59;99892.59;1766040;81;21907;-60
2021/04/05 12:21:06;;;;;;;;;;;;;;;15.44;34.98;99896.36;1739296;79;20219;-59
2021/04/05 12:24:11;;;;;;;;;;;;;;;15.61;34.76;99888.75;1750827;81;20735;-59
2021/04/05 12:27:16;;;;;;;;;;;;;;;15.76;34.74;99887.08;1722867;83;20211;-60
2021/04/05 12:30:27;;;;;;;;;;;;;;;15.84;34.39;99882.69;1738983;82;20212;-61
2021/04/05 12:33:34;;;;;;;;;;;;;;;15.93;34.48;99875.30;1707514;83;20203;-60
2021/04/05 12:36:42;;;;;;;;;;;;;;;15.71;34.30;99870.33;1723921;82;20210;-61
2021/04/05 12:39:49;;;;;;;;;;;;;;;15.27;34.28;99880.80;1744914;82;20243;-59
2021/04/05 12:42:53;;;;;;;;;;;;;;;14.82;34.87;99876.28;1678226;84;20220;-60
2021/04/05 12:45:59;;;;;;;;;;;;;;;14.60;35.78;99874.84;1698543;83;20573;-59
2021/04/05 12:49:06;;;;;;;;;;;;;;;14.42;36.75;99872.74;1752064;81;20577;-58
2021/04/05 12:52:12;;;;;;;;;;;;;;;14.28;37.16;99870.20;1750912;82;20211;-61
2021/04/05 12:55:21;;;;;;;;;;;;;;;14.03;36.74;99867.21;1748493;80;20228;-58
2021/04/05 12:58:25;;;;;;;;;;;;;;;13.86;36.67;99856.81;1739940;81;20204;-58
2021/04/05 13:01:35;;;;;;;;;;;;;;;13.74;37.47;99862.08;1709236;82;20584;-59
2021/04/05 13:04:41;;;;;;;;;;;;;;;13.76;37.61;99865.48;1671881;84;20230;-59
2021/04/05 13:07:56;;;;;;;;;;;;;;;13.85;38.10;99859.23;1690353;84;20209;-60
2021/04/05 13:11:12;;;;;;;;;;;;;;;13.82;38.00;99856.90;1745301;81;20200;-60
2021/04/05 13:14:20;;;;;;;;;;;;;;;13.84;37.88;99857.55;1742090;82;20212;-63
2021/04/05 13:17:34;;;;;;;;;;;;;;;13.82;38.27;99853.63;1704408;82;20220;-58
2021/04/05 13:20:42;;;;;;;;;;;;;;;13.95;40.79;99848.15;1703587;80;20489;-59
2021/04/05 13:23:53;;;;;;;;;;;;;;;14.29;37.74;99842.45;1689610;82;20221;-59
2021/04/05 13:27:07;;;;;;;;;;;;;;;14.46;39.60;99844.25;1708770;82;20218;-59
2021/04/05 13:30:12;;;;;;;;;;;;;;;14.22;41.04;99840.73;1700278;82;20555;-60
2021/04/05 13:33:17;;;;;;;;;;;;;;;13.90;41.70;99843.80;1703027;82;20260;-59
2021/04/05 13:36:22;;;;;;;;;;;;;;;13.52;42.64;99844.88;1703791;82;20210;-59
2021/04/05 13:39:31;;;;;;;;;;;;;;;13.16;43.31;99856.70;1701094;82;20230;-59
2021/04/05 13:42:37;;;;;;;;;;;;;;;12.92;43.78;99849.50;1699989;82;20205;-60
2021/04/05 13:45:46;;;;;;;;;;;;;;;12.64;44.21;99855.03;1708033;82;20586;-60
2021/04/05 13:48:54;;;;;;;;;;;;;;;12.33;45.10;99851.02;1745407;81;20535;-59
2021/04/05 13:51:58;;;;;;;;;;;;;;;12.10;45.68;99851.25;1744839;81;20224;-59
2021/04/05 13:55:07;;;;;;;;;;;;;;;12.07;46.11;99845.34;1688139;82;20213;-58
2021/04/05 13:58:23;;;;;;;;;;;;;;;12.05;46.41;99854.59;1686424;83;20253;-58
2021/04/05 14:01:30;;;;;;;;;;;;;;;12.14;46.00;99852.57;1689012;83;20225;-59
2021/04/05 14:04:38;;;;;;;;;;;;;;;12.19;45.76;99850.08;1673252;84;20626;-58
2021/04/05 14:07:43;;;;;;;;;;;;;;;12.13;45.58;99846.73;1695625;84;20560;-59
2021/04/05 14:10:50;;;;;;;;;;;;;;;12.07;46.25;99846.17;1673020;84;20220;-60
2021/04/05 14:13:55;;;;;;;;;;;;;;;12.00;46.66;99850.22;1698665;83;20575;-57
2021/04/05 14:17:14;;;;;;;;;;;;;;;11.97;46.63;99851.17;1717024;82;20256;-57
2021/04/05 14:20:20;;;;;;;;;;;;;;;11.97;47.04;99844.31;1703491;84;20296;-57
2021/04/05 14:23:26;;;;;;;;;;;;;;;11.98;47.06;99840.51;1772593;81;20631;-57
2021/04/05 14:26:33;;;;;;;;;;;;;;;12.00;46.90;99833.77;1768949;81;20211;-58
2021/04/05 14:29:46;;;;;;;;;;;;;;;11.96;47.17;99827.51;1768417;81;20246;-57
2021/04/05 14:32:56;;;;;;;;;;;;;;;11.89;47.40;99830.19;1769001;81;20247;-58
2021/04/05 14:36:05;;;;;;;;;;;;;;;11.82;47.87;99838.04;1765691;81;20247;-58
2021/04/05 14:39:39;;;;;;;;;;;;;;;11.74;48.34;99839.55;1768195;81;20223;-58
2021/04/05 14:42:49;;;;;;;;;;;;;;;11.69;48.92;99836.03;1754856;81;20248;-59
2021/04/05 14:45:54;;;;;;;;;;;;;;;11.69;49.26;99835.17;1759606;81;20670;-59
2021/04/05 14:49:06;;;;;;;;;;;;;;;11.69;49.00;99835.17;1746159;81;20247;-59
2021/04/05 14:52:12;;;;;;;;;;;;;;;11.72;48.92;99836.14;1766824;81;20222;-58
2021/04/05 14:55:19;;;;;;;;;;;;;;;11.73;48.51;99835.94;1766302;81;20662;-59
2021/04/05 14:58:33;;;;;;;;;;;;;;;11.74;48.20;99822.58;1729755;81;20522;-59
2021/04/05 15:01:46;;;;;;;;;;;;;;;11.75;48.14;99827.52;1746257;81;20212;-57
2021/04/05 15:04:51;;;;;;;;;;;;;;;11.76;48.12;99830.61;1742244;81;20231;-58
2021/04/05 15:07:57;;;;;;;;;;;;;;;11.75;47.89;99830.27;1769547;81;20721;-58
2021/04/05 15:11:05;;;;;;;;;;;;;;;11.72;47.92;99826.03;1768579;81;20255;-57
2021/04/05 15:14:10;;;;;;;;;;;;;;;11.69;48.45;99828.31;1769540;81;20192;-58
2021/04/05 15:17:15;;;;;;;;;;;;;;;11.65;48.76;99833.33;1769405;81;20209;-58
2021/04/05 15:20:23;;;;;;;;;;;;;;;11.63;49.46;99826.36;1769496;81;20506;-58
2021/04/05 15:23:32;;;;;;;;;;;;;;;11.78;49.54;99831.27;1752937;78;20676;-58
2021/04/05 15:26:41;;;;;;;;;;;;;;;12.08;49.26;99825.94;1723367;81;20214;-58
2021/04/05 15:29:45;;;;;;;;;;;;;;;12.31;49.08;99827.89;1707379;83;20258;-58
2021/04/05 15:32:59;;;;;;;;;;;;;;;12.30;49.22;99830.84;1707312;83;20555;-58
2021/04/05 15:36:03;;;;;;;;;;;;;;;12.35;49.07;99830.58;1708891;83;20261;-58
2021/04/05 15:39:07;;;;;;;;;;;;;;;12.45;49.01;99828.81;1709648;83;20319;-58
2021/04/05 15:42:19;;;;;;;;;;;;;;;12.38;48.69;99837.55;1707956;83;20210;-58
2021/04/05 15:45:26;;;;;;;;;;;;;;;12.19;48.51;99834.14;1708275;83;20570;-58
2021/04/05 15:48:33;;;;;;;;;;;;;;;11.97;48.63;99838.83;1709828;83;20237;-59
2021/04/05 15:51:42;;;;;;;;;;;;;;;11.77;48.88;99833.16;1737966;82;20608;-58
2021/04/05 15:54:55;;;;;;;;;;;;;;;11.61;48.98;99835.27;1675866;84;20261;-58
2021/04/05 15:58:00;;;;;;;;;;;;;;;11.49;49.30;99832.73;1741690;81;20204;-56
2021/04/05 16:01:10;;;;;;;;;;;;;;;11.37;49.49;99835.13;1752741;81;20207;-57
2021/04/05 16:04:37;;;;;;;;;;;;;;;11.26;49.81;99830.66;1737701;82;20224;-58
2021/04/05 16:08:00;;;;;;;;;;;;;;;11.14;50.15;99834.45;1738235;82;20284;-58
2021/04/05 16:11:11;;;;;;;;;;;;;;;11.03;50.40;99836.83;1738602;82;20284;-58
2021/04/05 16:14:27;;;;;;;;;;;;;;;10.91;50.75;99837.00;1736689;82;20279;-57
2021/04/05 16:17:37;;;;;;;;;;;;;;;10.80;51.22;99834.76;1739270;82;20284;-58
2021/04/05 16:20:41;;;;;;;;;;;;;;;10.71;51.73;99839.98;1738345;82;20240;-57
2021/04/05 16:24:09;;;;;;;;;;;;;;;10.63;51.98;99837.34;1750923;80;20271;-58
2021/04/05 16:27:13;;;;;;;;;;;;;;;10.54;52.13;99837.44;1806169;79;20280;-58
2021/04/05 16:30:29;;;;;;;;;;;;;;;10.43;52.52;99843.92;1806866;79;20277;-58